createdAt,value
2018-09-09T00:00:07.293Z,11.90
2018-09-09T00:02:42.161Z,11.90
2018-09-09T00:05:17.393Z,11.90
2018-09-09T00:07:52.484Z,11.80
2018-09-09T00:10:27.365Z,11.80
2018-09-09T00:13:02.178Z,11.90
2018-09-09T00:15:37.045Z,11.90
2018-09-09T00:18:12.003Z,11.80
2018-09-09T00:20:46.869Z,11.70
2018-09-09T00:23:21.974Z,11.70
2018-09-09T00:25:56.814Z,11.60
2018-09-09T00:28:31.619Z,11.60
2018-09-09T00:31:06.420Z,11.60
2018-09-09T00:33:41.203Z,11.60
2018-09-09T00:36:16.273Z,11.60
2018-09-09T00:38:51.254Z,11.60
2018-09-09T00:41:26.075Z,11.40
2018-09-09T00:44:01.024Z,11.50
2018-09-09T00:46:35.743Z,11.50
2018-09-09T00:49:15.538Z,11.40
2018-09-09T00:51:55.658Z,11.40
2018-09-09T00:54:31.109Z,11.50
2018-09-09T00:57:06.669Z,11.40
2018-09-09T00:59:41.615Z,11.40
2018-09-09T01:02:16.427Z,11.40
2018-09-09T01:04:51.321Z,11.40
2018-09-09T01:07:26.239Z,11.30
2018-09-09T01:10:01.185Z,11.30
2018-09-09T01:12:36.015Z,11.30
2018-09-09T01:15:11.165Z,11.20
2018-09-09T01:17:45.798Z,11.10
2018-09-09T01:20:20.790Z,11.00
2018-09-09T01:22:55.724Z,11.10
2018-09-09T01:25:36.983Z,11.00
2018-09-09T01:28:14.778Z,11.00
2018-09-09T01:30:49.517Z,10.80
2018-09-09T01:33:24.276Z,10.90
2018-09-09T01:35:59.122Z,11.00
2018-09-09T01:38:33.834Z,10.90
2018-09-09T01:41:08.701Z,10.90
2018-09-09T01:43:43.491Z,11.00
2018-09-09T01:46:18.211Z,11.00
2018-09-09T01:48:52.991Z,10.90
2018-09-09T01:51:27.621Z,10.80
2018-09-09T01:54:02.755Z,10.80
2018-09-09T01:56:37.526Z,10.80
2018-09-09T01:59:12.392Z,10.70
2018-09-09T02:01:47.215Z,10.70
2018-09-09T02:04:22.111Z,10.70
2018-09-09T02:06:56.975Z,10.80
2018-09-09T02:09:31.846Z,10.70
2018-09-09T02:12:06.722Z,10.70
2018-09-09T02:14:41.620Z,10.70
2018-09-09T02:17:16.358Z,10.70
2018-09-09T02:19:51.233Z,10.70
2018-09-09T02:22:26.960Z,10.60
2018-09-09T02:25:02.162Z,10.60
2018-09-09T02:27:36.746Z,10.60
2018-09-09T02:30:12.054Z,10.60
2018-09-09T02:32:46.855Z,10.50
2018-09-09T02:35:21.774Z,10.50
2018-09-09T02:37:57.332Z,10.50
2018-09-09T02:40:32.046Z,10.50
2018-09-09T02:43:07.438Z,10.50
2018-09-09T02:45:42.206Z,10.50
2018-09-09T02:48:16.838Z,10.50
2018-09-09T02:50:51.657Z,10.50
2018-09-09T02:53:26.455Z,10.50
2018-09-09T02:56:05.496Z,10.50
2018-09-09T02:58:40.742Z,10.40
2018-09-09T03:01:15.602Z,10.40
2018-09-09T03:03:50.385Z,10.30
2018-09-09T03:06:25.367Z,10.30
2018-09-09T03:08:59.990Z,10.20
2018-09-09T03:11:34.882Z,10.10
2018-09-09T03:14:09.698Z,10.10
2018-09-09T03:16:44.637Z,10.10
2018-09-09T03:19:19.566Z,10.10
2018-09-09T03:21:54.289Z,10.10
2018-09-09T03:24:29.312Z,10.00
2018-09-09T03:27:04.057Z,10.00
2018-09-09T03:29:38.771Z,10.00
2018-09-09T03:32:13.812Z,10.00
2018-09-09T03:34:48.622Z,10.00
2018-09-09T03:37:24.262Z,10.00
2018-09-09T03:39:58.895Z,10.00
2018-09-09T03:42:34.114Z,10.00
2018-09-09T03:45:09.299Z,10.00
2018-09-09T03:47:44.035Z,10.00
2018-09-09T03:50:18.911Z,10.00
2018-09-09T03:52:53.774Z,10.00
2018-09-09T03:55:28.580Z,10.00
2018-09-09T03:58:03.418Z,9.90
2018-09-09T04:00:38.136Z,9.80
2018-09-09T04:03:13.561Z,9.80
2018-09-09T04:05:49.927Z,9.80
2018-09-09T04:08:24.586Z,9.70
2018-09-09T04:10:59.461Z,9.70
2018-09-09T04:13:34.261Z,9.70
2018-09-09T04:16:10.070Z,9.70
2018-09-09T04:18:44.800Z,9.70
2018-09-09T04:21:19.550Z,9.60
2018-09-09T04:23:54.304Z,9.50
2018-09-09T04:26:29.179Z,9.50
2018-09-09T04:29:03.909Z,9.50
2018-09-09T04:31:38.666Z,9.50
2018-09-09T04:34:14.009Z,9.50
2018-09-09T04:36:48.716Z,9.50
2018-09-09T04:39:23.654Z,9.60
2018-09-09T04:41:58.952Z,9.40
2018-09-09T04:44:33.809Z,9.50
2018-09-09T04:47:08.680Z,9.40
2018-09-09T04:49:43.383Z,9.40
2018-09-09T04:52:18.205Z,9.50
2018-09-09T04:54:52.984Z,9.50
2018-09-09T04:57:27.774Z,9.50
2018-09-09T05:00:02.757Z,9.60
2018-09-09T05:02:38.158Z,9.60
2018-09-09T05:05:13.137Z,9.60
2018-09-09T05:07:47.880Z,9.60
2018-09-09T05:10:22.723Z,9.60
2018-09-09T05:12:57.631Z,9.60
2018-09-09T05:15:32.657Z,9.60
2018-09-09T05:18:07.415Z,9.70
2018-09-09T05:20:42.312Z,9.70
2018-09-09T05:23:17.024Z,9.60
2018-09-09T05:25:52.292Z,9.60
2018-09-09T05:28:26.992Z,9.70
2018-09-09T05:31:01.719Z,9.80
2018-09-09T05:33:36.735Z,9.90
2018-09-09T05:36:11.742Z,9.90
2018-09-09T05:38:46.542Z,10.00
2018-09-09T05:41:21.693Z,10.10
2018-09-09T05:43:56.810Z,10.20
2018-09-09T05:46:31.976Z,10.20
2018-09-09T05:49:06.927Z,10.20
2018-09-09T05:51:42.713Z,10.30
2018-09-09T05:54:17.412Z,10.40
2018-09-09T05:56:52.332Z,10.50
2018-09-09T05:59:27.227Z,10.60
2018-09-09T06:02:02.333Z,10.70
2018-09-09T06:04:37.399Z,10.90
2018-09-09T06:07:12.307Z,10.90
2018-09-09T06:09:47.243Z,11.10
2018-09-09T06:12:22.384Z,11.30
2018-09-09T06:14:57.006Z,11.40
2018-09-09T06:17:33.052Z,11.50
2018-09-09T06:20:07.841Z,11.60
2018-09-09T06:22:42.555Z,11.60
2018-09-09T06:25:17.462Z,11.60
2018-09-09T06:27:52.922Z,11.70
2018-09-09T06:30:27.559Z,11.70
2018-09-09T06:33:02.710Z,11.70
2018-09-09T06:35:38.355Z,11.70
2018-09-09T06:38:13.358Z,11.70
2018-09-09T06:40:48.268Z,11.80
2018-09-09T06:43:23.199Z,11.80
2018-09-09T06:45:58.651Z,11.90
2018-09-09T06:48:33.409Z,12.00
2018-09-09T06:51:08.308Z,12.10
2018-09-09T06:53:43.344Z,12.20
2018-09-09T06:56:18.247Z,12.30
2018-09-09T06:58:53.924Z,12.40
2018-09-09T07:01:28.604Z,12.50
2018-09-09T07:04:03.709Z,12.70
2018-09-09T07:06:38.878Z,12.90
2018-09-09T07:09:14.419Z,13.10
2018-09-09T07:11:49.805Z,13.30
2018-09-09T07:14:24.539Z,13.40
2018-09-09T07:16:59.305Z,13.60
2018-09-09T07:19:34.527Z,13.70
2018-09-09T07:22:09.366Z,13.80
2018-09-09T07:24:44.016Z,13.90
2018-09-09T07:27:19.422Z,14.10
2018-09-09T07:29:54.577Z,14.20
2018-09-09T07:32:29.328Z,14.40
2018-09-09T07:35:05.157Z,14.60
2018-09-09T07:37:40.446Z,14.80
2018-09-09T07:40:15.408Z,15.00
2018-09-09T07:42:50.286Z,15.20
2018-09-09T07:45:25.332Z,15.40
2018-09-09T07:48:00.316Z,15.60
2018-09-09T07:50:35.405Z,15.80
2018-09-09T07:53:11.093Z,15.90
2018-09-09T07:55:45.862Z,16.10
2018-09-09T07:58:21.807Z,16.30
2018-09-09T08:00:56.798Z,16.40
2018-09-09T08:03:31.793Z,16.60
2018-09-09T08:06:07.113Z,16.80
2018-09-09T08:08:42.165Z,16.90
2018-09-09T08:11:17.103Z,17.10
2018-09-09T08:13:52.024Z,17.30
2018-09-09T08:16:27.219Z,17.40
2018-09-09T08:19:02.211Z,17.50
2018-09-09T08:21:38.577Z,17.70
2018-09-09T08:24:14.324Z,17.80
2018-09-09T08:26:49.615Z,18.20
2018-09-09T08:29:25.112Z,18.50
2018-09-09T08:32:00.442Z,18.90
2018-09-09T08:34:35.849Z,19.30
2018-09-09T08:37:11.235Z,19.60
2018-09-09T08:39:46.761Z,19.70
2018-09-09T08:42:22.139Z,19.80
2018-09-09T08:44:57.958Z,20.40
2018-09-09T08:47:33.425Z,21.10
2018-09-09T08:50:09.035Z,21.70
2018-09-09T08:52:44.411Z,22.00
2018-09-09T08:55:20.210Z,21.70
2018-09-09T08:57:55.271Z,22.40
2018-09-09T09:00:30.957Z,25.60
2018-09-09T09:03:06.838Z,24.60
2018-09-09T09:05:42.454Z,24.30
2018-09-09T09:08:18.535Z,24.80
2018-09-09T09:10:53.892Z,24.40
2018-09-09T09:13:29.277Z,24.30
2018-09-09T09:16:04.610Z,24.50
2018-09-09T09:18:40.010Z,25.30
2018-09-09T09:21:15.843Z,25.40
2018-09-09T09:23:51.412Z,25.00
2018-09-09T09:26:26.797Z,25.90
2018-09-09T09:29:02.584Z,26.70
2018-09-09T09:31:37.638Z,26.70
2018-09-09T09:34:12.860Z,27.40
2018-09-09T09:36:48.034Z,28.10
2018-09-09T09:39:23.085Z,27.60
2018-09-09T09:41:59.120Z,27.20
2018-09-09T09:44:34.247Z,28.00
2018-09-09T09:47:09.441Z,27.50
2018-09-09T09:49:45.178Z,27.90
2018-09-09T09:52:20.407Z,28.30
2018-09-09T09:54:55.442Z,27.80
2018-09-09T09:57:30.687Z,26.20
2018-09-09T10:00:06.537Z,26.90
2018-09-09T10:02:42.334Z,28.30
2018-09-09T10:05:17.544Z,28.70
2018-09-09T10:07:53.162Z,28.00
2018-09-09T10:10:28.301Z,29.30
2018-09-09T10:13:03.619Z,28.70
2018-09-09T10:15:40.234Z,29.80
2018-09-09T10:18:15.378Z,30.90
2018-09-09T10:20:50.423Z,30.90
2018-09-09T10:23:25.603Z,30.70
2018-09-09T10:26:00.820Z,29.60
2018-09-09T10:28:35.978Z,29.90
2018-09-09T10:31:11.141Z,30.60
2018-09-09T10:33:46.446Z,30.30
2018-09-09T10:36:22.217Z,30.50
2018-09-09T10:38:57.399Z,31.10
2018-09-09T10:41:32.566Z,31.20
2018-09-09T10:44:07.867Z,31.30
2018-09-09T10:46:42.967Z,31.20
2018-09-09T10:49:18.242Z,30.40
2018-09-09T10:51:53.410Z,30.70
2018-09-09T10:54:29.519Z,31.90
2018-09-09T10:57:04.696Z,32.00
2018-09-09T10:59:39.927Z,31.60
2018-09-09T11:02:15.222Z,30.90
2018-09-09T11:04:51.189Z,30.70
2018-09-09T11:07:26.477Z,30.60
2018-09-09T11:10:01.646Z,30.40
2018-09-09T11:12:37.008Z,30.80
2018-09-09T11:15:12.319Z,31.00
2018-09-09T11:17:47.334Z,31.80
2018-09-09T11:20:22.570Z,31.40
2018-09-09T11:22:57.885Z,32.10
2018-09-09T11:25:32.961Z,33.10
2018-09-09T11:28:08.046Z,33.50
2018-09-09T11:30:43.214Z,34.10
2018-09-09T11:33:18.531Z,34.70
2018-09-09T11:35:53.598Z,35.00
2018-09-09T11:38:28.679Z,35.00
2018-09-09T11:41:04.033Z,33.00
2018-09-09T11:43:39.155Z,33.00
2018-09-09T11:46:15.656Z,33.20
2018-09-09T11:48:50.939Z,34.10
2018-09-09T11:51:25.874Z,33.40
2018-09-09T11:54:01.140Z,32.80
2018-09-09T11:56:36.806Z,33.40
2018-09-09T11:59:11.931Z,32.80
2018-09-09T12:01:47.387Z,33.80
2018-09-09T12:04:22.580Z,33.50
2018-09-09T12:06:58.685Z,32.60
2018-09-09T12:09:33.904Z,33.80
2018-09-09T12:12:09.186Z,34.10
2018-09-09T12:14:44.157Z,34.30
2018-09-09T12:17:19.370Z,34.80
2018-09-09T12:19:54.591Z,35.00
2018-09-09T12:22:29.701Z,35.80
2018-09-09T12:25:04.948Z,35.10
2018-09-09T12:27:39.978Z,36.30
2018-09-09T12:30:15.731Z,36.00
2018-09-09T12:32:50.731Z,35.30
2018-09-09T12:35:25.867Z,33.50
2018-09-09T12:38:00.995Z,35.30
2018-09-09T12:40:36.074Z,36.40
2018-09-09T12:43:16.817Z,36.60
2018-09-09T12:45:57.966Z,34.20
2018-09-09T12:48:38.723Z,34.40
2018-09-09T12:51:13.825Z,34.70
2018-09-09T12:53:50.035Z,36.20
2018-09-09T12:56:25.782Z,36.40
2018-09-09T12:59:01.287Z,34.80
2018-09-09T13:01:36.679Z,34.70
2018-09-09T13:04:12.008Z,35.70
2018-09-09T13:06:47.178Z,35.40
2018-09-09T13:09:22.405Z,34.80
2018-09-09T13:11:57.398Z,35.00
2018-09-09T13:14:33.301Z,35.00
2018-09-09T13:17:08.220Z,35.50
2018-09-09T13:19:43.443Z,35.30
2018-09-09T13:22:18.693Z,35.10
2018-09-09T13:24:53.887Z,34.20
2018-09-09T13:27:29.755Z,34.70
2018-09-09T13:30:05.164Z,35.10
2018-09-09T13:32:40.605Z,35.60
2018-09-09T13:35:16.247Z,35.70
2018-09-09T13:37:51.977Z,35.30
2018-09-09T13:40:29.099Z,34.80
2018-09-09T13:43:05.049Z,36.30
2018-09-09T13:45:40.343Z,33.60
2018-09-09T13:48:16.269Z,34.10
2018-09-09T13:50:51.517Z,35.40
2018-09-09T13:53:26.928Z,35.80
2018-09-09T13:56:02.232Z,35.10
2018-09-09T13:58:37.382Z,33.90
2018-09-09T14:01:12.527Z,32.60
2018-09-09T14:03:48.112Z,32.40
2018-09-09T14:06:23.682Z,32.60
2018-09-09T14:08:59.613Z,34.20
2018-09-09T14:11:35.117Z,32.20
2018-09-09T14:14:10.343Z,32.70
2018-09-09T14:16:45.732Z,33.20
2018-09-09T14:19:20.758Z,32.40
2018-09-09T14:21:56.342Z,31.90
2018-09-09T14:24:31.654Z,33.10
2018-09-09T14:27:07.196Z,33.90
2018-09-09T14:29:42.483Z,34.00
2018-09-09T14:32:17.994Z,34.90
2018-09-09T14:34:53.536Z,34.90
2018-09-09T14:37:28.766Z,34.80
2018-09-09T14:40:04.006Z,35.50
2018-09-09T14:42:39.545Z,35.10
2018-09-09T14:45:14.731Z,35.80
2018-09-09T14:47:49.792Z,35.40
2018-09-09T14:50:25.663Z,35.20
2018-09-09T14:53:00.756Z,35.70
2018-09-09T14:55:36.349Z,36.50
2018-09-09T14:58:11.881Z,36.60
2018-09-09T15:00:47.137Z,36.30
2018-09-09T15:03:23.317Z,36.70
2018-09-09T15:05:58.454Z,37.00
2018-09-09T15:08:33.812Z,36.00
2018-09-09T15:11:09.081Z,37.00
2018-09-09T15:13:44.578Z,36.90
2018-09-09T15:16:19.632Z,36.90
2018-09-09T15:18:54.748Z,37.00
2018-09-09T15:21:30.041Z,37.00
2018-09-09T15:24:05.573Z,36.50
2018-09-09T15:26:41.524Z,36.10
2018-09-09T15:29:16.564Z,35.90
2018-09-09T15:31:51.784Z,36.00
2018-09-09T15:34:27.030Z,36.50
2018-09-09T15:37:02.260Z,35.90
2018-09-09T15:39:37.342Z,36.20
2018-09-09T15:42:13.177Z,35.40
2018-09-09T15:44:48.805Z,35.80
2018-09-09T15:47:23.825Z,35.30
2018-09-09T15:49:59.002Z,34.70
2018-09-09T15:52:34.283Z,33.80
2018-09-09T15:55:09.412Z,34.30
2018-09-09T15:57:44.590Z,34.60
2018-09-09T16:00:20.004Z,34.20
2018-09-09T16:02:55.486Z,32.70
2018-09-09T16:05:30.519Z,33.80
2018-09-09T16:08:05.682Z,33.70
2018-09-09T16:10:40.709Z,33.30
2018-09-09T16:13:15.943Z,34.00
2018-09-09T16:15:51.272Z,34.30
2018-09-09T16:18:26.923Z,34.40
2018-09-09T16:21:03.132Z,34.10
2018-09-09T16:23:38.049Z,34.20
2018-09-09T16:26:13.948Z,33.90
2018-09-09T16:28:49.303Z,34.00
2018-09-09T16:31:25.295Z,33.80
2018-09-09T16:34:00.170Z,33.90
2018-09-09T16:36:35.443Z,33.90
2018-09-09T16:39:11.407Z,33.90
2018-09-09T16:41:46.518Z,33.80
2018-09-09T16:44:22.873Z,33.60
2018-09-09T16:46:58.874Z,33.30
2018-09-09T16:49:33.766Z,33.30
2018-09-09T16:52:08.883Z,33.30
2018-09-09T16:54:44.121Z,33.20
2018-09-09T16:57:19.241Z,32.80
2018-09-09T16:59:55.029Z,32.30
2018-09-09T17:02:30.075Z,32.20
2018-09-09T17:05:05.665Z,32.20
2018-09-09T17:07:47.426Z,32.00
2018-09-09T17:10:23.207Z,31.70
2018-09-09T17:12:58.125Z,31.40
2018-09-09T17:15:33.353Z,31.10
2018-09-09T17:18:08.365Z,30.70
2018-09-09T17:20:44.261Z,30.00
2018-09-09T17:23:19.383Z,29.20
2018-09-09T17:25:54.541Z,28.20
2018-09-09T17:28:30.186Z,27.60
2018-09-09T17:31:05.829Z,27.00
2018-09-09T17:33:41.633Z,26.50
2018-09-09T17:36:17.121Z,26.10
2018-09-09T17:38:52.458Z,25.70
2018-09-09T17:41:27.807Z,25.30
2018-09-09T17:44:03.004Z,24.80
2018-09-09T17:46:38.516Z,24.40
2018-09-09T17:49:13.717Z,24.30
2018-09-09T17:51:49.095Z,24.10
2018-09-09T17:54:24.392Z,24.00
2018-09-09T17:56:59.935Z,23.80
2018-09-09T17:59:35.289Z,23.70
2018-09-09T18:02:10.731Z,23.50
2018-09-09T18:04:46.148Z,23.30
2018-09-09T18:07:22.489Z,23.00
2018-09-09T18:09:57.961Z,22.90
2018-09-09T18:12:33.279Z,22.70
2018-09-09T18:15:08.981Z,22.50
2018-09-09T18:17:44.931Z,22.30
2018-09-09T18:20:20.900Z,22.10
2018-09-09T18:22:56.652Z,21.90
2018-09-09T18:25:32.263Z,21.50
2018-09-09T18:28:07.710Z,21.60
2018-09-09T18:30:43.401Z,21.30
2018-09-09T18:33:18.844Z,21.10
2018-09-09T18:35:55.127Z,21.10
2018-09-09T18:38:31.307Z,21.00
2018-09-09T18:41:07.045Z,20.90
2018-09-09T18:43:42.447Z,20.80
2018-09-09T18:46:17.928Z,20.70
2018-09-09T18:48:53.329Z,20.60
2018-09-09T18:51:28.807Z,20.30
2018-09-09T18:54:04.229Z,20.20
2018-09-09T18:56:39.698Z,20.20
2018-09-09T18:59:15.263Z,20.10
2018-09-09T19:01:50.861Z,19.90
2018-09-09T19:04:26.256Z,19.80
2018-09-09T19:07:01.658Z,19.70
2018-09-09T19:09:37.047Z,19.30
2018-09-09T19:12:12.655Z,19.10
2018-09-09T19:14:48.599Z,18.80
2018-09-09T19:17:24.185Z,18.70
2018-09-09T19:19:59.836Z,18.70
2018-09-09T19:22:35.487Z,18.60
2018-09-09T19:25:10.967Z,18.70
2018-09-09T19:27:47.342Z,18.50
2018-09-09T19:30:22.746Z,18.40
2018-09-09T19:32:58.432Z,18.20
2018-09-09T19:35:34.239Z,17.90
2018-09-09T19:38:09.710Z,17.60
2018-09-09T19:40:45.005Z,17.50
2018-09-09T19:43:20.943Z,17.30
2018-09-09T19:45:56.633Z,17.30
2018-09-09T19:48:31.846Z,17.20
2018-09-09T19:51:07.329Z,17.20
2018-09-09T19:53:42.168Z,17.30
2018-09-09T19:56:16.954Z,17.50
2018-09-09T19:58:51.786Z,17.40
2018-09-09T20:01:26.578Z,17.00
2018-09-09T20:04:01.766Z,17.10
2018-09-09T20:06:37.003Z,17.20
2018-09-09T20:09:12.746Z,17.10
2018-09-09T20:11:47.655Z,16.90
2018-09-09T20:14:22.591Z,16.60
2018-09-09T20:16:58.172Z,16.50
2018-09-09T20:19:33.098Z,16.60
2018-09-09T20:22:10.698Z,16.70
2018-09-09T20:24:45.762Z,16.70
2018-09-09T20:27:20.786Z,16.50
2018-09-09T20:29:55.684Z,16.30
2018-09-09T20:32:33.050Z,16.00
2018-09-09T20:35:08.119Z,16.10
2018-09-09T20:37:43.186Z,16.10
2018-09-09T20:40:18.196Z,16.20
2018-09-09T20:42:53.083Z,16.00
2018-09-09T20:45:27.907Z,16.00
2018-09-09T20:48:02.785Z,15.70
2018-09-09T20:50:37.878Z,15.60
2018-09-09T20:53:12.782Z,15.40
2018-09-09T20:55:47.714Z,15.50
2018-09-09T20:58:22.701Z,15.60
2018-09-09T21:00:58.436Z,15.70
2018-09-09T21:03:33.618Z,15.50
2018-09-09T21:06:08.593Z,15.30
2018-09-09T21:08:44.009Z,15.20
2018-09-09T21:11:18.802Z,15.10
2018-09-09T21:13:54.199Z,15.30
2018-09-09T21:16:28.909Z,15.30
2018-09-09T21:19:04.299Z,15.20
2018-09-09T21:21:39.314Z,15.20
2018-09-09T21:24:13.957Z,15.10
2018-09-09T21:26:48.662Z,15.00
2018-09-09T21:29:23.527Z,15.00
2018-09-09T21:31:58.863Z,14.90
2018-09-09T21:34:33.719Z,14.90
2018-09-09T21:37:08.763Z,14.90
2018-09-09T21:39:43.922Z,14.70
2018-09-09T21:42:18.869Z,14.70
2018-09-09T21:44:53.723Z,14.70
2018-09-09T21:47:30.454Z,14.70
2018-09-09T21:50:06.195Z,14.40
2018-09-09T21:52:41.264Z,14.30
2018-09-09T21:55:16.012Z,14.20
2018-09-09T21:57:51.582Z,14.10
2018-09-09T22:00:26.540Z,14.10
2018-09-09T22:03:01.144Z,14.20
2018-09-09T22:05:35.940Z,14.20
2018-09-09T22:08:11.285Z,14.10
2018-09-09T22:10:47.110Z,14.10
2018-09-09T22:13:22.114Z,14.10
2018-09-09T22:15:56.791Z,14.10
2018-09-09T22:18:31.526Z,14.00
2018-09-09T22:21:06.800Z,14.00
2018-09-09T22:23:41.745Z,14.10
2018-09-09T22:26:17.707Z,13.70
2018-09-09T22:28:52.719Z,13.60
2018-09-09T22:31:28.557Z,13.70
2018-09-09T22:34:03.344Z,13.70
2018-09-09T22:36:38.500Z,13.80
2018-09-09T22:39:13.410Z,13.70
2018-09-09T22:41:55.158Z,13.50
2018-09-09T22:44:29.944Z,13.40
2018-09-09T22:47:05.857Z,13.40
2018-09-09T22:49:40.885Z,13.30
2018-09-09T22:52:15.806Z,13.30
2018-09-09T22:54:50.453Z,13.30
2018-09-09T22:57:25.950Z,13.40
2018-09-09T23:00:00.719Z,13.30
2018-09-09T23:02:35.593Z,13.40
2018-09-09T23:05:10.245Z,13.30
2018-09-09T23:07:45.174Z,13.20
2018-09-09T23:10:20.713Z,13.20
2018-09-09T23:12:55.841Z,12.90
2018-09-09T23:15:31.015Z,12.70
2018-09-09T23:18:06.349Z,12.80
2018-09-09T23:20:41.700Z,12.50
2018-09-09T23:23:16.645Z,12.70
2018-09-09T23:25:51.517Z,12.70
2018-09-09T23:28:26.454Z,12.50
2018-09-09T23:31:01.841Z,12.60
2018-09-09T23:33:36.929Z,12.60
2018-09-09T23:36:11.597Z,12.40
2018-09-09T23:38:46.457Z,12.60
2018-09-09T23:41:21.167Z,12.60
2018-09-09T23:43:55.977Z,12.70
2018-09-09T23:46:31.654Z,12.70
2018-09-09T23:49:06.789Z,12.70
2018-09-09T23:51:41.521Z,12.50
2018-09-09T23:54:17.026Z,12.50
2018-09-09T23:56:51.907Z,12.50
2018-09-09T23:59:26.833Z,12.30
